Skip Navigation LinksHome page > Weather > Current weather Skip Navigation Links

Current Weather

Cherry Capital, Traverse City, Mich.

For information only: do not use for flight planning or navigation.
Latest weather
Observation time Tuesday, September 17, 2019 2:53 AM EDT
Local time Tuesday, September 17, 2019 3:04 AM EDT
Flight conditions Low Instrument Meteorological Conditions
Winds
Wind speed calm
Visibility 0.5 mi.
Present weather fog
Sky condition
Ceiling 200 ft. indefinite
Cloud layer vertical visibility 200 ft.
Temperature 59°F
Dewpoint 58°F
Altimeter 30.15 in.Hg
Derived measurements
Relative humidity 96%
Density altitude 589 ft.
Sea-level pressure 30.15 in.Hg
Remarks
Fully automated report.
Automated weather observing station with precipitation discriminator.
METAR KTVC 170653Z AUTO 00000KT 1/2SM FG VV002 15/14 A3015 RMK AO2 SLP210 T01500144

Settings

Location code

InnerDrive.Weather 4.0.6770.0 Release CLR 4.0.30319.42000
Copyright ©2018 Inner Drive Technology. All rights reserved. Portions Copyright ©1986-2018 David Braverman.

Find weather

Site navigation


Skip Navigation Links

Place info

Page info

PayPal - The safer, easier way to pay online!

Return home.

Copyright ©2019 Inner Drive Technology. Purveyors of fine, hand-crafted computer software. Page printed 2019-09-17T07:04:55 UTC.